RYR84KK LEAM-EBCI
Flight info
| Callsign | RYR84KK |
|---|---|
| Flight time | N/A |
| Altitude | 34000 |
| Route | ESILA2S ESILA N865 VTB DCT RBO DCT OSTIX DCT GASMO DCT DGO N858 ABRIX DCT CNA DCT ADABI DCT BOKNO UN858 VANAD UN874 BAMES UT191 PODEM UN873 BAZOS DCT BELDI DCT VEKIN Z173 ARVOL ARVOL6A |
| Aircraft | B38M/M-SADE3FGILRWY/SB1 |
Departure
| Time | 2026-04-22 09:08 |
|---|---|
| Airport | Almería Airport (LEAM) |
Arrival
| Time | N/A |
|---|---|
| Airport | Brussels South Charleroi Airport (EBCI) |
| Time | Latitude | Longitude | Altitude | Speed | Heading |
|---|---|---|---|---|---|
| 2026-04-22 08:54 | 36.84655 | -2.37251 | 65 ft | 0 kts | 112° |
| 2026-04-22 09:04 | 36.84652 | -2.37245 | 65 ft | 3 kts | 127° |
| 2026-04-22 09:04 | 36.84603 | -2.37211 | 64 ft | 15 kts | 113° |
| 2026-04-22 09:05 | 36.84637 | -2.37042 | 70 ft | 24 kts | 72° |
| 2026-04-22 09:05 | 36.84615 | -2.36829 | 68 ft | 26 kts | 86° |
| 2026-04-22 09:05 | 36.84668 | -2.36604 | 68 ft | 28 kts | 73° |
| 2026-04-22 09:05 | 36.84725 | -2.36369 | 64 ft | 29 kts | 73° |
| 2026-04-22 09:06 | 36.84774 | -2.36172 | 63 ft | 19 kts | 73° |
| 2026-04-22 09:06 | 36.84815 | -2.36004 | 65 ft | 21 kts | 72° |
| 2026-04-22 09:06 | 36.84860 | -2.35821 | 64 ft | 23 kts | 73° |
| 2026-04-22 09:06 | 36.84908 | -2.35622 | 66 ft | 25 kts | 73° |
| 2026-04-22 09:07 | 36.84940 | -2.35407 | 63 ft | 26 kts | 104° |
| 2026-04-22 09:07 | 36.84798 | -2.35372 | 64 ft | 21 kts | 244° |
| 2026-04-22 09:07 | 36.84737 | -2.35624 | 56 ft | 55 kts | 252° |
| 2026-04-22 09:07 | 36.84558 | -2.36350 | 62 ft | 118 kts | 252° |
| 2026-04-22 09:08 | 36.84376 | -2.37089 | 60 ft | 150 kts | 253° |
| 2026-04-22 09:08 | 36.84066 | -2.38416 | 442 ft | 165 kts | 252° |
| 2026-04-22 09:08 | 36.83721 | -2.39853 | 941 ft | 174 kts | 251° |
| 2026-04-22 09:08 | 36.83372 | -2.41237 | 1752 ft | 171 kts | 251° |
| 2026-04-22 09:09 | 36.82987 | -2.42756 | 2052 ft | 197 kts | 253° |
| 2026-04-22 09:09 | 36.82559 | -2.44484 | 2406 ft | 220 kts | 253° |
| 2026-04-22 09:09 | 36.82087 | -2.46385 | 2805 ft | 239 kts | 253° |
| 2026-04-22 09:09 | 36.81420 | -2.49065 | 3604 ft | 245 kts | 252° |
| 2026-04-22 09:10 | 36.81077 | -2.50445 | 4049 ft | 248 kts | 251° |
| 2026-04-22 09:10 | 36.80570 | -2.52505 | 4715 ft | 249 kts | 251° |
| 2026-04-22 09:10 | 36.80059 | -2.54582 | 5352 ft | 250 kts | 251° |
| 2026-04-22 09:10 | 36.79549 | -2.56649 | 6031 ft | 251 kts | 251° |
| 2026-04-22 09:11 | 36.79081 | -2.58750 | 6678 ft | 252 kts | 261° |
| 2026-04-22 09:11 | 36.79348 | -2.60897 | 7334 ft | 257 kts | 292° |
| 2026-04-22 09:11 | 36.80436 | -2.62695 | 7891 ft | 266 kts | 317° |
| 2026-04-22 09:11 | 36.82045 | -2.63873 | 8524 ft | 272 kts | 335° |
| 2026-04-22 09:12 | 36.83786 | -2.64838 | 9165 ft | 274 kts | 332° |
| 2026-04-22 09:12 | 36.85518 | -2.65855 | 9857 ft | 277 kts | 331° |
| 2026-04-22 09:12 | 36.87271 | -2.66885 | 10535 ft | 279 kts | 331° |
| 2026-04-22 09:12 | 36.89010 | -2.67908 | 11241 ft | 282 kts | 331° |
| 2026-04-22 09:13 | 36.90792 | -2.68956 | 11987 ft | 285 kts | 330° |
| 2026-04-22 09:13 | 36.92617 | -2.70030 | 12703 ft | 288 kts | 330° |
| 2026-04-22 09:13 | 36.94413 | -2.71087 | 13425 ft | 291 kts | 330° |
| 2026-04-22 09:13 | 36.96255 | -2.72172 | 14123 ft | 294 kts | 329° |
| 2026-04-22 09:14 | 36.98109 | -2.73264 | 14785 ft | 296 kts | 330° |
| 2026-04-22 09:14 | 36.99985 | -2.74370 | 15474 ft | 298 kts | 330° |
| 2026-04-22 09:14 | 37.01856 | -2.75473 | 16239 ft | 298 kts | 330° |
| 2026-04-22 09:14 | 37.03732 | -2.76611 | 16907 ft | 302 kts | 326° |
| 2026-04-22 09:15 | 37.05317 | -2.78354 | 17130 ft | 310 kts | 302° |
| 2026-04-22 09:15 | 37.06391 | -2.80762 | 17320 ft | 325 kts | 295° |
| 2026-04-22 09:15 | 37.07459 | -2.83347 | 17521 ft | 341 kts | 294° |
| 2026-04-22 09:15 | 37.08548 | -2.86024 | 17970 ft | 348 kts | 295° |
| 2026-04-22 09:16 | 37.09637 | -2.88727 | 18495 ft | 349 kts | 294° |
| 2026-04-22 09:16 | 37.10726 | -2.91461 | 18950 ft | 352 kts | 294° |
| 2026-04-22 09:16 | 37.11821 | -2.94217 | 19416 ft | 354 kts | 294° |
| 2026-04-22 09:16 | 37.12920 | -2.96987 | 19897 ft | 356 kts | 294° |
| 2026-04-22 09:17 | 37.14025 | -2.99777 | 20318 ft | 358 kts | 294° |
| 2026-04-22 09:17 | 37.15135 | -3.02585 | 20745 ft | 361 kts | 295° |
| 2026-04-22 09:17 | 37.16256 | -3.05418 | 21146 ft | 364 kts | 294° |
| 2026-04-22 09:17 | 37.17381 | -3.08268 | 21618 ft | 365 kts | 294° |
| 2026-04-22 09:18 | 37.18510 | -3.11128 | 22015 ft | 367 kts | 294° |
| 2026-04-22 09:18 | 37.19640 | -3.13997 | 22475 ft | 367 kts | 294° |
| 2026-04-22 09:18 | 37.20777 | -3.16881 | 22781 ft | 371 kts | 295° |
| 2026-04-22 09:18 | 37.21923 | -3.19793 | 23154 ft | 373 kts | 295° |
| 2026-04-22 09:19 | 37.23072 | -3.22717 | 23506 ft | 376 kts | 295° |
| 2026-04-22 09:19 | 37.24232 | -3.25669 | 23804 ft | 378 kts | 295° |
| 2026-04-22 09:19 | 37.25410 | -3.28625 | 24105 ft | 379 kts | 295° |
| 2026-04-22 09:19 | 37.26602 | -3.31576 | 24392 ft | 380 kts | 295° |
| 2026-04-22 09:20 | 37.27780 | -3.34505 | 24661 ft | 381 kts | 295° |
| 2026-04-22 09:20 | 37.28995 | -3.37527 | 24942 ft | 383 kts | 295° |
| 2026-04-22 09:20 | 37.30178 | -3.40474 | 25198 ft | 384 kts | 295° |
| 2026-04-22 09:20 | 37.31382 | -3.43477 | 25460 ft | 386 kts | 295° |
| 2026-04-22 09:21 | 37.32589 | -3.46487 | 25729 ft | 386 kts | 295° |
| 2026-04-22 09:21 | 37.33799 | -3.49511 | 26034 ft | 387 kts | 295° |
| 2026-04-22 09:21 | 37.35010 | -3.52539 | 26316 ft | 389 kts | 295° |
| 2026-04-22 09:21 | 37.36224 | -3.55579 | 26580 ft | 390 kts | 295° |
| 2026-04-22 09:22 | 37.37609 | -3.58512 | 26826 ft | 393 kts | 307° |
| 2026-04-22 09:22 | 37.39627 | -3.60845 | 27105 ft | 398 kts | 324° |
| 2026-04-22 09:22 | 37.42149 | -3.62329 | 27362 ft | 405 kts | 341° |
| 2026-04-22 09:22 | 37.44950 | -3.62874 | 27576 ft | 413 kts | 355° |
| 2026-04-22 09:23 | 37.47832 | -3.62927 | 27793 ft | 415 kts | 356° |
| 2026-04-22 09:23 | 37.50718 | -3.62954 | 27996 ft | 416 kts | 356° |
| 2026-04-22 09:23 | 37.53625 | -3.62954 | 28223 ft | 417 kts | 356° |
| 2026-04-22 09:23 | 37.56529 | -3.62943 | 28448 ft | 419 kts | 356° |
| 2026-04-22 09:24 | 37.59448 | -3.62927 | 28624 ft | 420 kts | 357° |
| 2026-04-22 09:24 | 37.62375 | -3.62907 | 28813 ft | 421 kts | 356° |
| 2026-04-22 09:24 | 37.65310 | -3.62886 | 28997 ft | 422 kts | 356° |
| 2026-04-22 09:24 | 37.68248 | -3.62862 | 29180 ft | 423 kts | 357° |
| 2026-04-22 09:25 | 37.71200 | -3.62839 | 29334 ft | 425 kts | 357° |
| 2026-04-22 09:25 | 37.74158 | -3.62814 | 29514 ft | 425 kts | 357° |
| 2026-04-22 09:25 | 37.77122 | -3.62790 | 29671 ft | 427 kts | 357° |
| 2026-04-22 09:25 | 37.80089 | -3.62765 | 29833 ft | 427 kts | 357° |
| 2026-04-22 09:26 | 37.83068 | -3.62740 | 29985 ft | 428 kts | 357° |
| 2026-04-22 09:26 | 37.86051 | -3.62716 | 30128 ft | 429 kts | 357° |
| 2026-04-22 09:26 | 37.89035 | -3.62691 | 30240 ft | 430 kts | 357° |
| 2026-04-22 09:26 | 37.92032 | -3.62666 | 30354 ft | 431 kts | 357° |
| 2026-04-22 09:27 | 37.95031 | -3.62641 | 30446 ft | 432 kts | 357° |
| 2026-04-22 09:27 | 37.98037 | -3.62616 | 30578 ft | 432 kts | 357° |
| 2026-04-22 09:27 | 38.01043 | -3.62591 | 30698 ft | 433 kts | 357° |
| 2026-04-22 09:27 | 38.04056 | -3.62566 | 30812 ft | 433 kts | 357° |
| 2026-04-22 09:28 | 38.07067 | -3.62540 | 30925 ft | 434 kts | 357° |
| 2026-04-22 09:28 | 38.10088 | -3.62515 | 31050 ft | 435 kts | 357° |
| 2026-04-22 09:28 | 38.13115 | -3.62490 | 31178 ft | 435 kts | 357° |
| 2026-04-22 09:28 | 38.16113 | -3.62340 | 31290 ft | 438 kts | 2° |
| 2026-04-22 09:29 | 38.19194 | -3.61999 | 31424 ft | 439 kts | 1° |
| 2026-04-22 09:29 | 38.22240 | -3.61688 | 31558 ft | 440 kts | 1° |
| 2026-04-22 09:29 | 38.25295 | -3.61391 | 31721 ft | 440 kts | 1° |
| 2026-04-22 09:29 | 38.28302 | -3.61103 | 31921 ft | 439 kts | 1° |
| 2026-04-22 09:30 | 38.31348 | -3.60813 | 32151 ft | 438 kts | 1° |
| 2026-04-22 09:30 | 38.34387 | -3.60523 | 32402 ft | 437 kts | 1° |
| 2026-04-22 09:30 | 38.37418 | -3.60235 | 32671 ft | 436 kts | 1° |
| 2026-04-22 09:30 | 38.40443 | -3.59946 | 32943 ft | 436 kts | 0° |
| 2026-04-22 09:31 | 38.43458 | -3.59659 | 33265 ft | 434 kts | 0° |
| 2026-04-22 09:31 | 38.46470 | -3.59371 | 33576 ft | 433 kts | 0° |
| 2026-04-22 09:31 | 38.49469 | -3.59085 | 33903 ft | 432 kts | 0° |
| 2026-04-22 09:31 | 38.52472 | -3.58797 | 34058 ft | 433 kts | 0° |
| 2026-04-22 09:32 | 38.55470 | -3.58510 | 34038 ft | 430 kts | 0° |
| 2026-04-22 09:32 | 38.61433 | -3.57939 | 34043 ft | 430 kts | 0° |
| 2026-04-22 09:33 | 38.67392 | -3.57367 | 34029 ft | 429 kts | 0° |
| 2026-04-22 09:33 | 38.73352 | -3.56794 | 34032 ft | 429 kts | 0° |
| 2026-04-22 09:34 | 38.79304 | -3.56220 | 34032 ft | 429 kts | 0° |
| 2026-04-22 09:34 | 38.85267 | -3.55644 | 34045 ft | 430 kts | 0° |
| 2026-04-22 09:35 | 38.94209 | -3.54780 | 34033 ft | 430 kts | 0° |
| 2026-04-22 09:35 | 39.00177 | -3.54199 | 34034 ft | 430 kts | 1° |
| 2026-04-22 09:36 | 39.06138 | -3.53607 | 34032 ft | 430 kts | 1° |
| 2026-04-22 09:36 | 39.12099 | -3.53014 | 34032 ft | 430 kts | 1° |
| 2026-04-22 09:37 | 39.18063 | -3.52420 | 34038 ft | 430 kts | 1° |
| 2026-04-22 09:37 | 39.24020 | -3.51826 | 34036 ft | 430 kts | 1° |
| 2026-04-22 09:38 | 39.29986 | -3.51230 | 34042 ft | 430 kts | 1° |
| 2026-04-22 09:38 | 39.35943 | -3.50633 | 34025 ft | 429 kts | 1° |
| 2026-04-22 09:39 | 39.41904 | -3.50035 | 34026 ft | 430 kts | 1° |
| 2026-04-22 09:39 | 39.47859 | -3.49437 | 34030 ft | 429 kts | 1° |
| 2026-04-22 09:40 | 39.53817 | -3.48837 | 34037 ft | 429 kts | 1° |
| 2026-04-22 09:40 | 39.59764 | -3.48241 | 34021 ft | 428 kts | 1° |
| 2026-04-22 09:41 | 39.65663 | -3.47650 | 34020 ft | 428 kts | 1° |
| 2026-04-22 09:41 | 39.71602 | -3.47054 | 34016 ft | 428 kts | 1° |
| 2026-04-22 09:42 | 39.77539 | -3.46444 | 34022 ft | 429 kts | 3° |
| 2026-04-22 09:42 | 39.83435 | -3.45214 | 34043 ft | 430 kts | 5° |
| 2026-04-22 09:43 | 39.89341 | -3.44022 | 34022 ft | 429 kts | 5° |
| 2026-04-22 09:43 | 39.95239 | -3.42848 | 34027 ft | 428 kts | 5° |
| 2026-04-22 09:44 | 40.01123 | -3.41676 | 34029 ft | 427 kts | 5° |
| 2026-04-22 09:44 | 40.07000 | -3.40504 | 34022 ft | 427 kts | 5° |
| 2026-04-22 09:45 | 40.12880 | -3.39329 | 34026 ft | 427 kts | 5° |
| 2026-04-22 09:45 | 40.18758 | -3.38152 | 34031 ft | 427 kts | 5° |
| 2026-04-22 09:46 | 40.24637 | -3.36972 | 34031 ft | 428 kts | 5° |
| 2026-04-22 09:46 | 40.30523 | -3.35790 | 34039 ft | 428 kts | 5° |
| 2026-04-22 09:47 | 40.36407 | -3.34606 | 34046 ft | 428 kts | 5° |
| 2026-04-22 09:47 | 40.42294 | -3.33419 | 34047 ft | 428 kts | 5° |
| 2026-04-22 09:48 | 40.48145 | -3.32237 | 34051 ft | 429 kts | 5° |
| 2026-04-22 09:48 | 40.54042 | -3.31044 | 34045 ft | 429 kts | 5° |
| 2026-04-22 09:49 | 40.59938 | -3.29849 | 34043 ft | 429 kts | 5° |
| 2026-04-22 09:49 | 40.65834 | -3.28652 | 34040 ft | 429 kts | 5° |
| 2026-04-22 09:50 | 40.71731 | -3.27452 | 34030 ft | 429 kts | 5° |
| 2026-04-22 09:50 | 40.77629 | -3.26251 | 34026 ft | 429 kts | 5° |
| 2026-04-22 09:51 | 40.83524 | -3.25047 | 34032 ft | 429 kts | 5° |
| 2026-04-22 09:51 | 40.89407 | -3.23745 | 34028 ft | 429 kts | 6° |
| 2026-04-22 09:52 | 40.95294 | -3.22428 | 34025 ft | 429 kts | 6° |
| 2026-04-22 09:52 | 41.01172 | -3.21114 | 34022 ft | 429 kts | 6° |
| 2026-04-22 09:53 | 41.07057 | -3.19795 | 34019 ft | 429 kts | 6° |
| 2026-04-22 09:53 | 41.12942 | -3.18474 | 34023 ft | 429 kts | 6° |
| 2026-04-22 09:54 | 41.18843 | -3.17148 | 34016 ft | 430 kts | 6° |
| 2026-04-22 09:54 | 41.24731 | -3.15821 | 34013 ft | 429 kts | 6° |
| 2026-04-22 09:55 | 41.30626 | -3.14491 | 34028 ft | 429 kts | 6° |
| 2026-04-22 09:55 | 41.36515 | -3.13160 | 34015 ft | 430 kts | 6° |
| 2026-04-22 09:56 | 41.42410 | -3.11824 | 34009 ft | 429 kts | 6° |
| 2026-04-22 09:56 | 41.47301 | -3.10715 | 34008 ft | 429 kts | 6° |
| 2026-04-22 09:57 | 41.53195 | -3.09379 | 34019 ft | 430 kts | 6° |
| 2026-04-22 09:57 | 41.59108 | -3.08037 | 34014 ft | 431 kts | 6° |
| 2026-04-22 09:58 | 41.65023 | -3.06693 | 34012 ft | 431 kts | 6° |
| 2026-04-22 09:58 | 41.70943 | -3.05345 | 34011 ft | 432 kts | 6° |
| 2026-04-22 09:59 | 41.76866 | -3.03985 | 34011 ft | 432 kts | 6° |
| 2026-04-22 09:59 | 41.82783 | -3.02623 | 34012 ft | 431 kts | 6° |
| 2026-04-22 10:00 | 41.88698 | -3.01260 | 34009 ft | 431 kts | 6° |
| 2026-04-22 10:00 | 41.94613 | -2.99893 | 34008 ft | 431 kts | 6° |
| 2026-04-22 10:01 | 42.00514 | -2.98527 | 34004 ft | 429 kts | 6° |
| 2026-04-22 10:01 | 42.06397 | -2.97163 | 33998 ft | 429 kts | 6° |
| 2026-04-22 10:02 | 42.12280 | -2.95796 | 33994 ft | 429 kts | 6° |
| 2026-04-22 10:02 | 42.18161 | -2.94427 | 33996 ft | 428 kts | 6° |
| 2026-04-22 10:03 | 42.24015 | -2.93062 | 33999 ft | 427 kts | 6° |
| 2026-04-22 10:03 | 42.29834 | -2.91702 | 33991 ft | 427 kts | 6° |
| 2026-04-22 10:04 | 42.35730 | -2.90322 | 33978 ft | 427 kts | 6° |
| 2026-04-22 10:04 | 42.41546 | -2.88959 | 33981 ft | 427 kts | 6° |
| 2026-04-22 10:05 | 42.47207 | -2.86558 | 33980 ft | 434 kts | 26° |
| 2026-04-22 10:05 | 42.52522 | -2.82617 | 33968 ft | 436 kts | 25° |
| 2026-04-22 10:06 | 42.57838 | -2.78633 | 33971 ft | 436 kts | 25° |
| 2026-04-22 10:06 | 42.63145 | -2.74619 | 33974 ft | 437 kts | 25° |
| 2026-04-22 10:07 | 42.68448 | -2.70599 | 33985 ft | 437 kts | 25° |
| 2026-04-22 10:07 | 42.73749 | -2.66570 | 33992 ft | 437 kts | 26° |
| 2026-04-22 10:08 | 42.79055 | -2.62532 | 33991 ft | 437 kts | 26° |
| 2026-04-22 10:08 | 42.84359 | -2.58486 | 33991 ft | 437 kts | 26° |
| 2026-04-22 10:09 | 42.89661 | -2.54434 | 33967 ft | 437 kts | 26° |
| 2026-04-22 10:09 | 42.94926 | -2.50402 | 33971 ft | 437 kts | 26° |
| 2026-04-22 10:10 | 43.00226 | -2.46335 | 33972 ft | 437 kts | 26° |
| 2026-04-22 10:10 | 43.05531 | -2.42257 | 33978 ft | 438 kts | 26° |
| 2026-04-22 10:11 | 43.10836 | -2.38170 | 33982 ft | 438 kts | 26° |
| 2026-04-22 10:11 | 43.16145 | -2.34072 | 33989 ft | 437 kts | 26° |
| 2026-04-22 10:12 | 43.21447 | -2.29970 | 33971 ft | 437 kts | 26° |
| 2026-04-22 10:12 | 43.26742 | -2.25866 | 33949 ft | 437 kts | 26° |
| 2026-04-22 10:13 | 43.32031 | -2.21759 | 33970 ft | 437 kts | 26° |
| 2026-04-22 10:13 | 43.37316 | -2.17646 | 33972 ft | 437 kts | 26° |
| 2026-04-22 10:14 | 43.42603 | -2.13523 | 33979 ft | 437 kts | 26° |
| 2026-04-22 10:14 | 43.47909 | -2.09377 | 33971 ft | 439 kts | 26° |
| 2026-04-22 10:15 | 43.53214 | -2.05224 | 33972 ft | 439 kts | 26° |
| 2026-04-22 10:15 | 43.58528 | -2.01057 | 33972 ft | 439 kts | 26° |
| 2026-04-22 10:16 | 43.63833 | -1.96888 | 33966 ft | 440 kts | 26° |
| 2026-04-22 10:16 | 43.69164 | -1.92683 | 33967 ft | 441 kts | 26° |
| 2026-04-22 10:17 | 43.74496 | -1.88471 | 33965 ft | 441 kts | 26° |
| 2026-04-22 10:17 | 43.79823 | -1.84254 | 33964 ft | 441 kts | 26° |
| 2026-04-22 10:18 | 43.85152 | -1.80029 | 33959 ft | 442 kts | 26° |
| 2026-04-22 10:18 | 43.90488 | -1.75788 | 33956 ft | 442 kts | 26° |
| 2026-04-22 10:19 | 43.95816 | -1.71545 | 33951 ft | 442 kts | 26° |
| 2026-04-22 10:19 | 44.01112 | -1.67318 | 33951 ft | 442 kts | 26° |
| 2026-04-22 10:20 | 44.06474 | -1.63030 | 33950 ft | 442 kts | 26° |
| 2026-04-22 10:20 | 44.11776 | -1.58781 | 33945 ft | 443 kts | 26° |
| 2026-04-22 10:21 | 44.17110 | -1.54497 | 33953 ft | 443 kts | 26° |
| 2026-04-22 10:21 | 44.22440 | -1.50207 | 33934 ft | 442 kts | 26° |
| 2026-04-22 10:22 | 44.27764 | -1.45914 | 33941 ft | 442 kts | 26° |
| 2026-04-22 10:22 | 44.33081 | -1.41617 | 33935 ft | 442 kts | 26° |
| 2026-04-22 10:23 | 44.38400 | -1.37309 | 33941 ft | 442 kts | 26° |
| 2026-04-22 10:23 | 44.43718 | -1.32993 | 33937 ft | 442 kts | 26° |
| 2026-04-22 10:24 | 44.49034 | -1.28669 | 33935 ft | 442 kts | 26° |
| 2026-04-22 10:24 | 44.54348 | -1.24337 | 33934 ft | 442 kts | 26° |
| 2026-04-22 10:25 | 44.59661 | -1.19997 | 33930 ft | 441 kts | 26° |
| 2026-04-22 10:25 | 44.64965 | -1.15656 | 33938 ft | 442 kts | 26° |
| 2026-04-22 10:26 | 44.70262 | -1.11310 | 33937 ft | 439 kts | 26° |
| 2026-04-22 10:26 | 44.75531 | -1.06979 | 33933 ft | 439 kts | 26° |
| 2026-04-22 10:27 | 44.80807 | -1.02632 | 33923 ft | 439 kts | 26° |
| 2026-04-22 10:27 | 44.86080 | -0.98279 | 33918 ft | 439 kts | 26° |
| 2026-04-22 10:28 | 44.91347 | -0.93920 | 33926 ft | 439 kts | 26° |
| 2026-04-22 10:28 | 44.96614 | -0.89554 | 33931 ft | 439 kts | 26° |
| 2026-04-22 10:29 | 45.01877 | -0.85180 | 33931 ft | 439 kts | 26° |
| 2026-04-22 10:29 | 45.07138 | -0.80799 | 33924 ft | 439 kts | 26° |
| 2026-04-22 10:30 | 45.12392 | -0.76414 | 33929 ft | 439 kts | 26° |
| 2026-04-22 10:30 | 45.17590 | -0.72067 | 33927 ft | 435 kts | 26° |
| 2026-04-22 10:31 | 45.22834 | -0.67672 | 33933 ft | 435 kts | 26° |
| 2026-04-22 10:31 | 45.28042 | -0.63297 | 33930 ft | 435 kts | 26° |
| 2026-04-22 10:32 | 45.33220 | -0.58938 | 33940 ft | 435 kts | 26° |